createdAt,value
2019-03-01T00:00:57.613Z,2.80
2019-03-01T00:03:26.174Z,2.70
2019-03-01T00:06:01.553Z,2.27
2019-03-01T00:08:31.365Z,2.93
2019-03-01T00:11:10.253Z,2.60
2019-03-01T00:13:52.074Z,2.53
2019-03-01T00:16:21.869Z,2.70
2019-03-01T00:19:06.743Z,3.80
2019-03-01T00:21:42.257Z,3.50
2019-03-01T00:24:12.001Z,2.60
2019-03-01T00:26:44.701Z,2.83
2019-03-01T00:29:14.455Z,2.50
2019-03-01T00:31:56.293Z,2.70
2019-03-01T00:34:29.082Z,2.83
2019-03-01T00:37:01.797Z,2.73
2019-03-01T00:39:37.234Z,2.70
2019-03-01T00:42:07.035Z,2.53
2019-03-01T00:44:38.871Z,2.60
2019-03-01T00:47:07.217Z,3.20
2019-03-01T00:49:35.397Z,4.00
2019-03-01T00:52:03.612Z,2.77
2019-03-01T00:54:31.874Z,2.10
2019-03-01T00:57:00.161Z,2.93
2019-03-01T00:59:28.413Z,2.47
2019-03-01T01:01:56.625Z,3.33
2019-03-01T01:04:24.881Z,3.30
2019-03-01T01:06:53.095Z,2.73
2019-03-01T01:09:21.361Z,2.50
2019-03-01T01:11:49.651Z,2.43
2019-03-01T01:14:17.914Z,2.80
2019-03-01T01:16:46.202Z,2.10
2019-03-01T01:19:14.465Z,2.10
2019-03-01T01:21:42.645Z,2.30
2019-03-01T01:24:10.863Z,2.47
2019-03-01T01:26:39.207Z,2.13
2019-03-01T01:29:07.472Z,2.70
2019-03-01T01:31:35.655Z,2.67
2019-03-01T01:34:03.935Z,2.30
2019-03-01T01:36:32.205Z,2.73
2019-03-01T01:39:00.416Z,2.47
2019-03-01T01:41:28.594Z,2.57
2019-03-01T01:43:56.800Z,2.40
2019-03-01T01:46:24.984Z,2.60
2019-03-01T01:48:53.174Z,2.43
2019-03-01T01:51:21.386Z,2.67
2019-03-01T01:53:49.642Z,2.30
2019-03-01T01:56:17.930Z,2.70
2019-03-01T01:58:46.114Z,2.93
2019-03-01T02:01:14.402Z,2.60
2019-03-01T02:03:42.581Z,2.70
2019-03-01T02:06:10.862Z,2.30
2019-03-01T02:08:39.047Z,2.90
2019-03-01T02:11:07.338Z,3.43
2019-03-01T02:13:35.594Z,2.97
2019-03-01T02:16:03.959Z,2.97
2019-03-01T02:18:32.212Z,3.30
2019-03-01T02:21:00.495Z,2.97
2019-03-01T02:23:28.754Z,2.90
2019-03-01T02:25:57.010Z,2.63
2019-03-01T02:28:25.222Z,2.77
2019-03-01T02:30:55.011Z,2.90
2019-03-01T02:33:23.219Z,3.17
2019-03-01T02:35:51.551Z,2.27
2019-03-01T02:38:19.843Z,2.40
2019-03-01T02:40:48.101Z,2.43
2019-03-01T02:43:16.385Z,2.67
2019-03-01T02:45:44.574Z,2.27
2019-03-01T02:48:13.031Z,2.27
2019-03-01T02:50:41.295Z,2.33
2019-03-01T02:53:09.514Z,2.20
2019-03-01T02:55:37.779Z,2.23
2019-03-01T02:58:06.031Z,2.30
2019-03-01T03:00:34.245Z,2.20
2019-03-01T03:03:02.442Z,2.10
2019-03-01T03:05:30.727Z,2.47
2019-03-01T03:08:00.631Z,3.00
2019-03-01T03:10:28.906Z,2.73
2019-03-01T03:12:58.362Z,1.90
2019-03-01T03:15:31.036Z,2.50
2019-03-01T03:17:59.290Z,2.50
2019-03-01T03:20:27.575Z,2.57
2019-03-01T03:22:55.826Z,2.73
2019-03-01T03:25:24.039Z,2.90
2019-03-01T03:27:52.359Z,2.50
2019-03-01T03:30:20.735Z,2.60
2019-03-01T03:32:49.043Z,2.37
2019-03-01T03:35:17.285Z,2.23
2019-03-01T03:37:45.639Z,2.30
2019-03-01T03:40:14.360Z,2.17
2019-03-01T03:42:42.569Z,2.47
2019-03-01T03:45:12.094Z,2.10
2019-03-01T03:47:40.320Z,1.90
2019-03-01T03:50:10.111Z,1.90
2019-03-01T03:52:38.396Z,2.10
2019-03-01T03:55:07.826Z,2.33
2019-03-01T03:57:36.110Z,2.03
2019-03-01T04:00:05.834Z,1.93
2019-03-01T04:02:34.190Z,1.70
2019-03-01T04:05:02.375Z,1.83
2019-03-01T04:07:30.838Z,2.20
2019-03-01T04:09:59.087Z,2.03
2019-03-01T04:12:27.274Z,1.90
2019-03-01T04:14:55.567Z,1.50
2019-03-01T04:17:23.820Z,1.40
2019-03-01T04:19:52.036Z,1.97
2019-03-01T04:22:20.288Z,1.60
2019-03-01T04:24:48.509Z,1.63
2019-03-01T04:27:16.745Z,1.60
2019-03-01T04:29:44.960Z,1.83
2019-03-01T04:32:13.217Z,1.70
2019-03-01T04:34:41.509Z,1.60
2019-03-01T04:37:09.761Z,1.37
2019-03-01T04:39:37.978Z,1.60
2019-03-01T04:42:06.234Z,1.23
2019-03-01T04:44:34.609Z,1.40
2019-03-01T04:47:02.869Z,1.03
2019-03-01T04:49:31.060Z,1.23
2019-03-01T04:51:59.350Z,1.33
2019-03-01T04:54:27.617Z,0.90
2019-03-01T04:56:55.905Z,1.27
2019-03-01T04:59:24.154Z,1.07
2019-03-01T05:01:52.366Z,1.07
2019-03-01T05:04:20.621Z,1.30
2019-03-01T05:06:48.838Z,0.90
2019-03-01T05:09:17.021Z,1.10
2019-03-01T05:11:45.306Z,1.10
2019-03-01T05:14:13.567Z,1.00
2019-03-01T05:16:41.854Z,1.37
2019-03-01T05:19:10.126Z,1.70
2019-03-01T05:21:38.404Z,2.63
2019-03-01T05:24:06.593Z,3.57
2019-03-01T05:26:34.801Z,3.77
2019-03-01T05:29:02.997Z,2.83
2019-03-01T05:31:31.249Z,2.83
2019-03-01T05:33:59.465Z,2.00
2019-03-01T05:36:27.646Z,1.57
2019-03-01T05:38:55.933Z,1.67
2019-03-01T05:41:24.194Z,2.10
2019-03-01T05:43:52.483Z,1.90
2019-03-01T05:46:20.749Z,2.40
2019-03-01T05:48:48.965Z,1.70
2019-03-01T05:51:17.234Z,1.50
2019-03-01T05:53:45.522Z,2.00
2019-03-01T05:56:13.777Z,2.20
2019-03-01T05:58:41.989Z,1.87
2019-03-01T06:01:14.421Z,2.00
2019-03-01T06:03:49.845Z,1.83
2019-03-01T06:06:36.105Z,1.90
2019-03-01T06:09:18.037Z,2.40
2019-03-01T06:12:05.654Z,2.13
2019-03-01T06:14:35.478Z,2.30
2019-03-01T06:17:14.033Z,2.73
2019-03-01T06:19:43.853Z,2.30
2019-03-01T06:22:13.582Z,2.23
2019-03-01T06:24:59.809Z,2.10
2019-03-01T06:27:41.434Z,2.43
2019-03-01T06:30:27.625Z,2.50
2019-03-01T06:32:57.352Z,2.13
2019-03-01T06:35:29.850Z,2.50
2019-03-01T06:38:16.232Z,1.63
2019-03-01T06:41:23.723Z,1.80
2019-03-01T06:44:09.673Z,1.20
2019-03-01T06:46:48.423Z,1.40
2019-03-01T06:49:18.320Z,1.10
2019-03-01T06:51:46.556Z,1.23
2019-03-01T06:54:14.809Z,1.10
2019-03-01T06:56:42.998Z,1.30
2019-03-01T06:59:11.282Z,1.93
2019-03-01T07:01:40.633Z,1.40
2019-03-01T07:04:10.621Z,1.40
2019-03-01T07:06:38.885Z,1.60
2019-03-01T07:09:07.505Z,1.40
2019-03-01T07:11:35.693Z,1.20
2019-03-01T07:14:03.969Z,1.70
2019-03-01T07:16:32.155Z,1.73
2019-03-01T07:19:00.437Z,1.50
2019-03-01T07:21:28.689Z,1.60
2019-03-01T07:23:56.932Z,1.90
2019-03-01T07:26:25.162Z,1.70
2019-03-01T07:28:53.428Z,2.00
2019-03-01T07:31:21.714Z,1.90
2019-03-01T07:33:50.158Z,2.30
2019-03-01T07:36:18.443Z,1.80
2019-03-01T07:38:46.705Z,1.80
2019-03-01T07:41:15.059Z,2.40
2019-03-01T07:43:43.318Z,2.60
2019-03-01T07:46:13.558Z,1.70
2019-03-01T07:48:41.741Z,2.30
2019-03-01T07:51:09.954Z,1.80
2019-03-01T07:53:41.793Z,2.23
2019-03-01T07:56:08.140Z,2.07
2019-03-01T07:58:36.329Z,2.37
2019-03-01T08:01:04.888Z,2.73
2019-03-01T08:03:33.070Z,1.90
2019-03-01T08:06:01.326Z,1.50
2019-03-01T08:08:29.606Z,1.83
2019-03-01T08:10:57.794Z,1.67
2019-03-01T08:13:27.778Z,1.67
2019-03-01T08:15:56.042Z,1.83
2019-03-01T08:18:24.330Z,1.70
2019-03-01T08:20:52.586Z,1.63
2019-03-01T08:23:20.804Z,1.80
2019-03-01T08:25:49.066Z,1.60
2019-03-01T08:28:18.562Z,2.60
2019-03-01T08:30:47.266Z,1.10
2019-03-01T08:33:15.473Z,1.00
2019-03-01T08:35:43.662Z,2.43
2019-03-01T08:38:11.941Z,1.77
2019-03-01T08:40:40.193Z,1.53
2019-03-01T08:43:12.016Z,1.20
2019-03-01T08:45:38.312Z,1.27
2019-03-01T08:48:06.570Z,1.30
2019-03-01T08:50:34.857Z,1.17
2019-03-01T08:53:03.045Z,1.30
2019-03-01T08:55:31.499Z,1.10
2019-03-01T08:58:04.631Z,1.20
2019-03-01T09:00:36.217Z,1.30
2019-03-01T09:03:09.038Z,1.10
2019-03-01T09:05:37.373Z,1.40
2019-03-01T09:08:05.690Z,1.23
2019-03-01T09:10:35.894Z,1.27
2019-03-01T09:13:04.693Z,1.20
2019-03-01T09:15:32.880Z,1.20
2019-03-01T09:18:01.177Z,1.13
2019-03-01T09:20:32.553Z,1.00
2019-03-01T09:22:59.375Z,1.10
2019-03-01T09:25:27.728Z,1.20
2019-03-01T09:27:57.580Z,1.00
2019-03-01T09:30:25.973Z,1.40
2019-03-01T09:32:54.253Z,1.10
2019-03-01T09:35:43.250Z,1.40
2019-03-01T09:38:11.401Z,1.10
2019-03-01T09:40:39.741Z,0.90
2019-03-01T09:43:07.953Z,1.37
2019-03-01T09:45:36.844Z,2.40
2019-03-01T09:48:05.268Z,1.20
2019-03-01T09:50:34.644Z,1.70
2019-03-01T09:53:03.501Z,1.13
2019-03-01T09:55:34.777Z,0.90
2019-03-01T09:58:01.663Z,0.93
2019-03-01T10:00:34.406Z,1.10
2019-03-01T10:03:02.592Z,0.80
2019-03-01T10:05:30.869Z,0.90
2019-03-01T10:07:59.054Z,0.90
2019-03-01T10:10:28.877Z,0.90
2019-03-01T10:12:57.199Z,1.00
2019-03-01T10:15:25.482Z,1.00
2019-03-01T10:17:53.738Z,0.93
2019-03-01T10:20:21.997Z,0.93
2019-03-01T10:22:50.208Z,1.30
2019-03-01T10:25:19.029Z,0.97
2019-03-01T10:27:48.570Z,0.80
2019-03-01T10:30:18.000Z,0.93
2019-03-01T10:32:46.277Z,0.90
2019-03-01T10:35:16.078Z,0.97
2019-03-01T10:37:44.366Z,1.10
2019-03-01T10:40:16.289Z,0.90
2019-03-01T10:42:44.502Z,1.20
2019-03-01T10:45:16.982Z,0.93
2019-03-01T10:47:45.287Z,1.20
2019-03-01T10:50:13.551Z,0.90
2019-03-01T10:52:43.449Z,1.13
2019-03-01T10:55:13.269Z,1.10
2019-03-01T10:57:41.601Z,0.90
2019-03-01T11:00:14.305Z,1.13
2019-03-01T11:02:42.525Z,0.90
2019-03-01T11:05:10.845Z,1.10
2019-03-01T11:07:39.107Z,1.00
2019-03-01T11:10:08.931Z,1.00
2019-03-01T11:12:37.241Z,1.00
2019-03-01T11:15:07.121Z,0.90
2019-03-01T11:17:35.377Z,0.90
2019-03-01T11:20:04.817Z,1.50
2019-03-01T11:22:33.031Z,1.30
2019-03-01T11:25:01.294Z,1.10
2019-03-01T11:27:29.573Z,0.90
2019-03-01T11:29:57.770Z,0.93
2019-03-01T11:32:26.058Z,1.20
2019-03-01T11:34:54.318Z,0.80
2019-03-01T11:37:22.601Z,1.17
2019-03-01T11:39:50.785Z,1.17
2019-03-01T11:42:18.998Z,1.10
2019-03-01T11:44:47.266Z,1.00
2019-03-01T11:47:17.441Z,1.10
2019-03-01T11:49:47.178Z,1.30
2019-03-01T11:52:17.405Z,1.50
2019-03-01T11:54:46.103Z,1.10
2019-03-01T11:57:14.411Z,1.37
2019-03-01T11:59:42.689Z,1.20
2019-03-01T12:02:10.958Z,1.27
2019-03-01T12:04:39.245Z,0.90
2019-03-01T12:07:07.506Z,1.10
2019-03-01T12:09:35.709Z,0.97
2019-03-01T12:12:05.145Z,1.10
2019-03-01T12:14:33.607Z,1.40
2019-03-01T12:17:03.564Z,1.30
2019-03-01T12:19:32.114Z,1.70
2019-03-01T12:22:01.584Z,1.20
2019-03-01T12:24:31.423Z,1.20
2019-03-01T12:27:04.383Z,1.30
2019-03-01T12:29:34.366Z,1.53
2019-03-01T12:32:06.895Z,1.00
2019-03-01T12:34:35.414Z,1.40
2019-03-01T12:37:05.620Z,1.50
2019-03-01T12:39:35.177Z,2.23
2019-03-01T12:42:04.937Z,1.90
2019-03-01T12:44:34.757Z,2.30
2019-03-01T12:47:03.047Z,2.37
2019-03-01T12:49:31.314Z,2.10
2019-03-01T12:51:59.609Z,2.40
2019-03-01T12:54:27.857Z,2.40
2019-03-01T12:56:56.069Z,2.43
2019-03-01T12:59:24.366Z,2.43
2019-03-01T13:01:56.910Z,2.70
2019-03-01T13:04:27.293Z,2.70
2019-03-01T13:06:55.390Z,2.60
2019-03-01T13:09:26.455Z,4.40
2019-03-01T13:11:56.473Z,3.10
2019-03-01T13:14:27.810Z,3.07
2019-03-01T13:16:58.487Z,2.70
2019-03-01T13:19:27.721Z,2.90
2019-03-01T13:21:56.218Z,2.83
2019-03-01T13:24:26.051Z,3.00
2019-03-01T13:26:54.322Z,2.93
2019-03-01T13:29:23.313Z,2.40
2019-03-01T13:31:51.587Z,2.70
2019-03-01T13:34:19.793Z,2.73
2019-03-01T13:36:47.978Z,2.80
2019-03-01T13:39:16.291Z,3.20
2019-03-01T13:41:44.521Z,3.17
2019-03-01T13:44:12.818Z,3.03
2019-03-01T13:46:40.997Z,2.57
2019-03-01T13:49:09.442Z,2.90
2019-03-01T13:51:37.731Z,2.90
2019-03-01T13:54:08.990Z,2.90
2019-03-01T13:56:37.114Z,2.60
2019-03-01T13:59:05.374Z,2.73
2019-03-01T14:01:33.586Z,2.40
2019-03-01T14:04:03.218Z,2.93
2019-03-01T14:06:31.747Z,2.77
2019-03-01T14:09:02.195Z,2.07
2019-03-01T14:11:30.485Z,1.90
2019-03-01T14:13:59.249Z,2.20
2019-03-01T14:16:27.558Z,2.33
2019-03-01T14:18:55.818Z,1.90
2019-03-01T14:21:24.266Z,2.70
2019-03-01T14:23:52.549Z,3.97
2019-03-01T14:26:22.375Z,2.50
2019-03-01T14:28:50.658Z,2.83
2019-03-01T14:31:18.885Z,2.80
2019-03-01T14:33:47.172Z,2.17
2019-03-01T14:36:15.418Z,2.67
2019-03-01T14:38:43.627Z,2.70
2019-03-01T14:41:11.877Z,2.60
2019-03-01T14:43:40.115Z,3.53
2019-03-01T14:46:08.377Z,3.10
2019-03-01T14:48:36.634Z,3.13
2019-03-01T14:51:06.993Z,3.30
2019-03-01T14:53:35.939Z,3.30
2019-03-01T14:56:08.606Z,3.00
2019-03-01T14:58:46.909Z,3.83
2019-03-01T15:01:16.986Z,4.00
2019-03-01T15:03:49.608Z,3.27
2019-03-01T15:06:19.250Z,4.27
2019-03-01T15:08:46.098Z,3.90
2019-03-01T15:11:14.658Z,4.10
2019-03-01T15:13:43.181Z,4.30
2019-03-01T15:16:11.510Z,4.30
2019-03-01T15:18:40.461Z,4.70
2019-03-01T15:21:09.117Z,4.53
2019-03-01T15:23:37.401Z,5.10
2019-03-01T15:26:07.446Z,5.17
2019-03-01T15:28:45.394Z,6.20
2019-03-01T15:31:14.645Z,5.73
2019-03-01T15:33:46.640Z,5.80
2019-03-01T15:36:13.724Z,7.67
2019-03-01T15:38:42.956Z,8.33
2019-03-01T15:41:12.879Z,8.00
2019-03-01T15:43:41.504Z,7.20
2019-03-01T15:46:11.579Z,7.00
2019-03-01T15:48:39.684Z,6.50
2019-03-01T15:51:08.786Z,7.07
2019-03-01T15:53:37.077Z,7.30
2019-03-01T15:56:05.827Z,6.87
2019-03-01T15:58:35.325Z,7.40
2019-03-01T16:01:05.858Z,7.27
2019-03-01T16:03:34.982Z,5.10
2019-03-01T16:06:04.553Z,4.80
2019-03-01T16:08:33.686Z,5.73
2019-03-01T16:11:03.451Z,5.40
2019-03-01T16:13:31.697Z,5.03
2019-03-01T16:16:00.481Z,4.43
2019-03-01T16:18:28.665Z,4.00
2019-03-01T16:20:56.873Z,3.80
2019-03-01T16:23:27.490Z,3.90
2019-03-01T16:25:56.404Z,4.20
2019-03-01T16:28:27.452Z,4.30
2019-03-01T16:30:56.833Z,5.70
2019-03-01T16:33:26.382Z,6.60
2019-03-01T16:35:55.157Z,8.17
2019-03-01T16:38:23.349Z,7.10
2019-03-01T16:40:51.639Z,7.53
2019-03-01T16:43:19.978Z,8.60
2019-03-01T16:45:48.265Z,10.70
2019-03-01T16:48:16.887Z,9.87
2019-03-01T16:50:45.918Z,9.83
2019-03-01T16:53:14.109Z,10.03
2019-03-01T16:55:42.330Z,10.00
2019-03-01T16:58:10.525Z,10.10
2019-03-01T17:00:38.742Z,10.67
2019-03-01T17:03:07.709Z,10.43
2019-03-01T17:05:38.717Z,10.67
2019-03-01T17:08:06.163Z,9.47
2019-03-01T17:10:34.461Z,10.80
2019-03-01T17:13:02.655Z,11.13
2019-03-01T17:15:30.949Z,10.90
2019-03-01T17:18:00.965Z,11.43
2019-03-01T17:20:29.209Z,13.13
2019-03-01T17:22:59.759Z,10.47
2019-03-01T17:25:27.732Z,11.30
2019-03-01T17:27:56.106Z,11.73
2019-03-01T17:30:24.868Z,12.37
2019-03-01T17:32:53.231Z,10.50
2019-03-01T17:35:23.235Z,12.43
2019-03-01T17:37:51.496Z,11.20
2019-03-01T17:40:19.951Z,11.30
2019-03-01T17:42:48.590Z,11.40
2019-03-01T17:45:23.366Z,14.10
2019-03-01T17:47:51.750Z,13.77
2019-03-01T17:50:19.954Z,13.00
2019-03-01T17:52:48.249Z,12.50
2019-03-01T17:55:20.384Z,13.80
2019-03-01T17:57:50.168Z,13.30
2019-03-01T18:00:25.417Z,13.60
2019-03-01T18:02:56.086Z,13.23
2019-03-01T18:05:25.529Z,12.83
2019-03-01T18:07:53.752Z,13.50
2019-03-01T18:10:22.009Z,13.70
2019-03-01T18:12:53.005Z,15.10
2019-03-01T18:15:23.682Z,17.23
2019-03-01T18:17:53.974Z,17.20
2019-03-01T18:20:22.175Z,18.07
2019-03-01T18:22:51.381Z,18.10
2019-03-01T18:25:22.888Z,13.90
2019-03-01T18:27:49.645Z,12.80
2019-03-01T18:30:29.866Z,16.03
2019-03-01T18:32:57.643Z,14.90
2019-03-01T18:35:26.187Z,14.07
2019-03-01T18:37:55.915Z,12.37
2019-03-01T18:40:24.413Z,13.33
2019-03-01T18:42:54.218Z,14.73
2019-03-01T18:45:25.938Z,15.17
2019-03-01T18:47:54.265Z,14.10
2019-03-01T18:50:37.590Z,13.40
2019-03-01T18:53:06.117Z,17.33
2019-03-01T18:55:34.414Z,15.80
2019-03-01T18:58:04.829Z,17.77
2019-03-01T19:00:37.092Z,13.43
2019-03-01T19:03:07.122Z,14.70
2019-03-01T19:05:36.524Z,14.63
2019-03-01T19:08:06.164Z,13.63
2019-03-01T19:10:35.400Z,16.10
2019-03-01T19:13:04.035Z,12.80
2019-03-01T19:15:34.205Z,13.37
2019-03-01T19:18:02.980Z,12.23
2019-03-01T19:20:37.920Z,13.03
2019-03-01T19:23:06.045Z,13.87
2019-03-01T19:25:34.305Z,13.40
2019-03-01T19:28:02.962Z,13.63
2019-03-01T19:30:31.283Z,13.87
2019-03-01T19:33:02.205Z,15.77
2019-03-01T19:35:29.991Z,14.80
2019-03-01T19:37:58.568Z,15.60
2019-03-01T19:40:27.421Z,16.87
2019-03-01T19:42:57.313Z,15.57
2019-03-01T19:45:26.953Z,18.23
2019-03-01T19:48:01.551Z,17.40
2019-03-01T19:50:27.561Z,20.13
2019-03-01T19:52:56.007Z,17.20
2019-03-01T19:55:24.357Z,18.13
2019-03-01T19:57:53.097Z,20.10
2019-03-01T20:00:24.933Z,19.93
2019-03-01T20:02:54.733Z,22.23
2019-03-01T20:05:27.812Z,23.30
2019-03-01T20:07:56.173Z,22.97
2019-03-01T20:10:25.518Z,22.30
2019-03-01T20:12:55.483Z,24.93
2019-03-01T20:15:25.310Z,22.83
2019-03-01T20:17:53.769Z,23.57
2019-03-01T20:20:24.578Z,25.50
2019-03-01T20:22:54.341Z,25.30
2019-03-01T20:25:24.554Z,24.40
2019-03-01T20:27:54.245Z,24.23
2019-03-01T20:30:28.494Z,25.47
2019-03-01T20:32:55.772Z,25.30
2019-03-01T20:35:25.781Z,24.20
2019-03-01T20:37:53.992Z,25.23
2019-03-01T20:40:22.715Z,26.63
2019-03-01T20:42:55.771Z,24.53
2019-03-01T20:45:25.973Z,23.50
2019-03-01T20:47:54.545Z,23.40
2019-03-01T20:50:23.633Z,25.40
2019-03-01T20:52:52.067Z,24.17
2019-03-01T20:55:23.840Z,25.10
2019-03-01T20:57:53.124Z,23.43
2019-03-01T21:00:26.232Z,24.73
2019-03-01T21:02:55.873Z,23.87
2019-03-01T21:05:29.065Z,23.80
2019-03-01T21:07:56.548Z,24.60
2019-03-01T21:10:27.493Z,25.10
2019-03-01T21:12:56.013Z,23.60
2019-03-01T21:15:25.189Z,23.90
2019-03-01T21:17:56.939Z,22.93
2019-03-01T21:20:23.757Z,24.60
2019-03-01T21:22:52.450Z,22.43
2019-03-01T21:25:26.110Z,24.60
2019-03-01T21:27:57.560Z,23.23
2019-03-01T21:30:27.635Z,22.53
2019-03-01T21:32:55.894Z,22.77
2019-03-01T21:35:24.553Z,23.10
2019-03-01T21:37:53.842Z,22.60
2019-03-01T21:40:22.357Z,23.63
2019-03-01T21:42:52.628Z,25.70
2019-03-01T21:45:22.541Z,22.40
2019-03-01T21:47:51.124Z,22.50
2019-03-01T21:50:19.686Z,22.80
2019-03-01T21:52:47.955Z,21.43
2019-03-01T21:55:17.824Z,22.07
2019-03-01T21:57:46.128Z,22.53
2019-03-01T22:00:16.197Z,23.10
2019-03-01T22:02:44.780Z,23.27
2019-03-01T22:05:14.464Z,22.30
2019-03-01T22:07:44.618Z,23.13
2019-03-01T22:10:14.338Z,21.57
2019-03-01T22:12:44.415Z,22.30
2019-03-01T22:15:13.852Z,25.50
2019-03-01T22:17:45.215Z,22.20
2019-03-01T22:20:12.454Z,21.97
2019-03-01T22:22:42.517Z,21.43
2019-03-01T22:25:12.309Z,22.47
2019-03-01T22:27:41.473Z,20.30
2019-03-01T22:30:12.481Z,20.87
2019-03-01T22:32:42.299Z,20.50
2019-03-01T22:35:10.881Z,20.67
2019-03-01T22:37:41.045Z,22.43
2019-03-01T22:40:10.586Z,20.40
2019-03-01T22:42:39.931Z,23.23
2019-03-01T22:45:13.638Z,21.20
2019-03-01T22:47:42.013Z,21.40
2019-03-01T22:50:11.581Z,22.60
2019-03-01T22:52:40.105Z,23.33
2019-03-01T22:55:09.499Z,22.10
2019-03-01T22:57:38.561Z,22.10
2019-03-01T23:00:08.780Z,21.50
2019-03-01T23:02:40.254Z,20.90
2019-03-01T23:05:07.774Z,19.13
2019-03-01T23:07:37.517Z,22.00
2019-03-01T23:10:07.250Z,21.10
2019-03-01T23:12:35.467Z,20.33
2019-03-01T23:15:06.804Z,20.50
2019-03-01T23:17:36.974Z,20.97
2019-03-01T23:20:06.773Z,21.10
2019-03-01T23:22:35.066Z,23.83
2019-03-01T23:25:07.682Z,20.20
2019-03-01T23:27:36.382Z,20.63
2019-03-01T23:30:05.241Z,21.97
2019-03-01T23:32:33.479Z,21.50
2019-03-01T23:35:01.846Z,21.30
2019-03-01T23:37:30.039Z,21.37
2019-03-01T23:40:01.077Z,20.47
2019-03-01T23:42:28.170Z,22.70
2019-03-01T23:44:56.401Z,21.60
2019-03-01T23:47:24.853Z,22.00
2019-03-01T23:49:55.611Z,22.43
2019-03-01T23:52:23.732Z,21.07
2019-03-01T23:54:52.570Z,22.30
2019-03-01T23:57:20.761Z,22.27
2019-03-01T23:59:48.982Z,21.13
